createdAt,value
2017-02-08T00:01:05.817Z,0
2017-02-08T00:02:17.222Z,0
2017-02-08T00:03:28.626Z,0
2017-02-08T00:04:40.036Z,0
2017-02-08T00:05:51.446Z,0
2017-02-08T00:07:02.899Z,0
2017-02-08T00:08:14.302Z,0
2017-02-08T00:09:25.701Z,0
2017-02-08T00:10:37.107Z,0
2017-02-08T00:11:48.512Z,0
2017-02-08T00:12:59.994Z,0
2017-02-08T00:14:11.400Z,0
2017-02-08T00:15:22.804Z,0
2017-02-08T00:16:34.200Z,0
2017-02-08T00:17:45.601Z,0
2017-02-08T00:18:57.051Z,0
2017-02-08T00:20:08.449Z,0
2017-02-08T00:21:19.846Z,0
2017-02-08T00:22:31.242Z,0
2017-02-08T00:23:42.848Z,0
2017-02-08T00:24:54.511Z,0
2017-02-08T00:26:05.910Z,0
2017-02-08T00:27:17.316Z,0
2017-02-08T00:28:28.709Z,0
2017-02-08T00:29:40.116Z,0
2017-02-08T00:30:51.566Z,0
2017-02-08T00:32:03.179Z,0
2017-02-08T00:33:14.782Z,0
2017-02-08T00:34:26.388Z,0
2017-02-08T00:35:37.801Z,0
2017-02-08T00:36:49.256Z,0
2017-02-08T00:38:00.655Z,0
2017-02-08T00:39:12.055Z,0
2017-02-08T00:40:23.456Z,0
2017-02-08T00:41:34.891Z,0
2017-02-08T00:42:46.345Z,0
2017-02-08T00:43:57.751Z,0
2017-02-08T00:45:09.355Z,0
2017-02-08T00:46:20.751Z,0
2017-02-08T00:47:32.147Z,0
2017-02-08T00:48:43.798Z,0
2017-02-08T00:49:55.396Z,0
2017-02-08T00:51:06.806Z,0
2017-02-08T00:52:18.206Z,0
2017-02-08T00:53:29.606Z,0
2017-02-08T00:54:41.256Z,0
2017-02-08T00:55:52.855Z,0
2017-02-08T00:57:04.261Z,0
2017-02-08T00:58:15.859Z,0
2017-02-08T00:59:27.262Z,0
2017-02-08T01:00:38.911Z,0
2017-02-08T01:01:50.315Z,0
2017-02-08T01:03:01.716Z,0
2017-02-08T01:04:13.317Z,0
2017-02-08T01:05:24.721Z,0
2017-02-08T01:06:36.181Z,0
2017-02-08T01:07:47.785Z,0
2017-02-08T01:08:59.185Z,0
2017-02-08T01:10:10.586Z,0
2017-02-08T01:11:21.983Z,0
2017-02-08T01:12:33.444Z,0
2017-02-08T01:13:44.853Z,0
2017-02-08T01:14:56.243Z,0
2017-02-08T01:16:07.645Z,0
2017-02-08T01:17:19.045Z,0
2017-02-08T01:18:30.702Z,0
2017-02-08T01:19:42.104Z,0
2017-02-08T01:20:53.508Z,0
2017-02-08T01:22:05.121Z,0
2017-02-08T01:23:16.553Z,0
2017-02-08T01:24:27.997Z,0
2017-02-08T01:25:39.401Z,0
2017-02-08T01:26:50.812Z,0
2017-02-08T01:28:02.208Z,0
2017-02-08T01:29:13.612Z,0
2017-02-08T01:30:25.261Z,0
2017-02-08T01:31:36.660Z,0
2017-02-08T01:32:48.066Z,0
2017-02-08T01:33:59.463Z,0
2017-02-08T01:35:10.865Z,0
2017-02-08T01:36:22.318Z,0
2017-02-08T01:37:33.719Z,0
2017-02-08T01:38:45.113Z,0
2017-02-08T01:39:56.512Z,0
2017-02-08T01:41:07.926Z,0
2017-02-08T01:42:19.372Z,0
2017-02-08T01:43:30.774Z,0
2017-02-08T01:44:42.188Z,0
2017-02-08T01:45:53.788Z,0
2017-02-08T01:47:05.187Z,0
2017-02-08T01:48:16.637Z,0
2017-02-08T01:49:28.029Z,0
2017-02-08T01:50:39.428Z,0
2017-02-08T01:51:50.829Z,0
2017-02-08T01:53:02.233Z,0
2017-02-08T01:54:13.683Z,0
2017-02-08T01:55:25.088Z,0
2017-02-08T01:56:36.492Z,0
2017-02-08T01:57:48.293Z,0
2017-02-08T01:58:59.690Z,0
2017-02-08T02:00:11.151Z,0
2017-02-08T02:01:22.756Z,0
2017-02-08T02:02:34.166Z,0
2017-02-08T02:03:45.568Z,0
2017-02-08T02:04:56.970Z,0
2017-02-08T02:06:08.429Z,0
2017-02-08T02:07:19.826Z,0
2017-02-08T02:08:31.231Z,0
2017-02-08T02:09:42.640Z,0
2017-02-08T02:10:54.046Z,0
2017-02-08T02:12:05.495Z,0
2017-02-08T02:13:16.906Z,0
2017-02-08T02:14:28.309Z,0
2017-02-08T02:15:39.715Z,0
2017-02-08T02:16:51.159Z,0
2017-02-08T02:18:02.617Z,0
2017-02-08T02:19:14.012Z,0
2017-02-08T02:20:25.610Z,0
2017-02-08T02:21:37.007Z,0
2017-02-08T02:22:48.413Z,0
2017-02-08T02:24:00.071Z,0
2017-02-08T02:25:11.469Z,0
2017-02-08T02:26:22.869Z,0
2017-02-08T02:27:34.266Z,0
2017-02-08T02:28:45.663Z,0
2017-02-08T02:29:57.116Z,0
2017-02-08T02:31:08.523Z,0
2017-02-08T02:32:20.132Z,0
2017-02-08T02:33:31.544Z,0
2017-02-08T02:34:42.948Z,0
2017-02-08T02:35:54.401Z,0
2017-02-08T02:37:05.797Z,0
2017-02-08T02:38:17.201Z,0
2017-02-08T02:39:28.811Z,0
2017-02-08T02:40:40.205Z,0
2017-02-08T02:41:51.852Z,0
2017-02-08T02:43:03.256Z,0
2017-02-08T02:44:14.667Z,0
2017-02-08T02:45:26.109Z,0
2017-02-08T02:46:37.707Z,0
2017-02-08T02:47:49.159Z,0
2017-02-08T02:49:00.561Z,0
2017-02-08T02:50:12.160Z,0
2017-02-08T02:51:23.557Z,0
2017-02-08T02:52:34.967Z,0
2017-02-08T02:53:46.421Z,0
2017-02-08T02:54:57.817Z,0
2017-02-08T02:56:09.216Z,0
2017-02-08T02:57:20.620Z,0
2017-02-08T02:58:32.025Z,0
2017-02-08T02:59:43.485Z,0
2017-02-08T03:00:54.883Z,0
2017-02-08T03:02:06.294Z,0
2017-02-08T03:03:17.913Z,0
2017-02-08T03:04:29.345Z,0
2017-02-08T03:05:40.790Z,0
2017-02-08T03:06:52.203Z,0
2017-02-08T03:08:03.602Z,0
2017-02-08T03:09:15.003Z,0
2017-02-08T03:10:26.398Z,0
2017-02-08T03:11:37.852Z,0
2017-02-08T03:12:49.255Z,0
2017-02-08T03:14:00.663Z,0
2017-02-08T03:15:12.061Z,0
2017-02-08T03:16:23.463Z,0
2017-02-08T03:17:34.915Z,0
2017-02-08T03:18:46.315Z,0
2017-02-08T03:19:57.715Z,0
2017-02-08T03:21:09.117Z,0
2017-02-08T03:22:20.720Z,0
2017-02-08T03:23:32.203Z,0
2017-02-08T03:24:43.610Z,0
2017-02-08T03:25:55.213Z,0
2017-02-08T03:27:06.616Z,0
2017-02-08T03:28:18.015Z,0
2017-02-08T03:29:29.465Z,0
2017-02-08T03:30:41.070Z,0
2017-02-08T03:31:52.476Z,0
2017-02-08T03:33:03.882Z,0
2017-02-08T03:34:15.290Z,0
2017-02-08T03:35:26.743Z,0
2017-02-08T03:36:38.140Z,0
2017-02-08T03:37:49.531Z,0
2017-02-08T03:39:00.938Z,0
2017-02-08T03:40:12.542Z,0
2017-02-08T03:41:23.990Z,0
2017-02-08T03:42:35.390Z,0
2017-02-08T03:43:46.799Z,0
2017-02-08T03:44:58.205Z,0
2017-02-08T03:46:09.813Z,0
2017-02-08T03:47:21.272Z,0
2017-02-08T03:48:32.670Z,0
2017-02-08T03:49:44.073Z,0
2017-02-08T03:50:55.674Z,0
2017-02-08T03:52:07.081Z,0
2017-02-08T03:53:18.728Z,0
2017-02-08T03:54:30.127Z,0
2017-02-08T03:55:41.514Z,0
2017-02-08T03:56:52.916Z,0
2017-02-08T03:58:04.321Z,0
2017-02-08T03:59:15.731Z,0
2017-02-08T04:00:27.131Z,0
2017-02-08T04:01:38.532Z,0
2017-02-08T04:02:49.933Z,0
2017-02-08T04:04:01.386Z,0
2017-02-08T04:05:12.787Z,0
2017-02-08T04:06:24.191Z,0
2017-02-08T04:07:35.600Z,0
2017-02-08T04:08:47.009Z,0
2017-02-08T04:09:58.450Z,0
2017-02-08T04:11:09.859Z,0
2017-02-08T04:12:21.464Z,0
2017-02-08T04:13:32.866Z,0
2017-02-08T04:14:44.468Z,0
2017-02-08T04:15:55.924Z,0
2017-02-08T04:17:07.330Z,0
2017-02-08T04:18:18.735Z,0
2017-02-08T04:19:30.142Z,0
2017-02-08T04:20:41.546Z,0
2017-02-08T04:21:53.203Z,0
2017-02-08T04:23:04.608Z,0
2017-02-08T04:24:16.012Z,0
2017-02-08T04:25:27.422Z,0
2017-02-08T04:26:38.822Z,0
2017-02-08T04:27:50.277Z,0
2017-02-08T04:29:01.692Z,0
2017-02-08T04:30:13.083Z,0
2017-02-08T04:31:24.688Z,0
2017-02-08T04:32:36.094Z,0
2017-02-08T04:33:47.543Z,0
2017-02-08T04:34:58.945Z,0
2017-02-08T04:36:10.363Z,0
2017-02-08T04:37:21.762Z,0
2017-02-08T04:38:33.156Z,0
2017-02-08T04:39:44.606Z,0
2017-02-08T04:40:55.993Z,0
2017-02-08T04:42:07.405Z,0
2017-02-08T04:43:18.806Z,0
2017-02-08T04:44:30.214Z,0
2017-02-08T04:45:41.670Z,0
2017-02-08T04:46:53.064Z,0
2017-02-08T04:48:04.468Z,0
2017-02-08T04:49:15.869Z,0
2017-02-08T04:50:27.275Z,0
2017-02-08T04:51:38.717Z,0
2017-02-08T04:52:50.117Z,0
2017-02-08T04:54:01.518Z,0
2017-02-08T04:55:12.924Z,0
2017-02-08T04:56:24.316Z,0
2017-02-08T04:57:35.766Z,0
2017-02-08T04:58:47.374Z,0
2017-02-08T04:59:58.771Z,0
2017-02-08T05:01:10.172Z,0
2017-02-08T05:02:21.571Z,0
2017-02-08T05:03:33.231Z,0
2017-02-08T05:04:44.629Z,0
2017-02-08T05:05:56.037Z,0
2017-02-08T05:07:07.439Z,0
2017-02-08T05:08:18.839Z,0
2017-02-08T05:09:30.292Z,0
2017-02-08T05:10:41.695Z,0
2017-02-08T05:11:53.093Z,0
2017-02-08T05:13:04.492Z,0
2017-02-08T05:14:15.898Z,0
2017-02-08T05:15:27.350Z,0
2017-02-08T05:16:38.748Z,0
2017-02-08T05:17:50.351Z,0
2017-02-08T05:19:01.754Z,0
2017-02-08T05:20:13.152Z,0
2017-02-08T05:21:24.802Z,0
2017-02-08T05:22:36.206Z,0
2017-02-08T05:23:47.608Z,0
2017-02-08T05:24:59.020Z,0
2017-02-08T05:26:10.428Z,0
2017-02-08T05:27:21.874Z,0
2017-02-08T05:28:33.273Z,0
2017-02-08T05:29:44.884Z,0
2017-02-08T05:30:56.288Z,0
2017-02-08T05:32:07.887Z,0
2017-02-08T05:33:19.336Z,0
2017-02-08T05:34:30.784Z,0
2017-02-08T05:35:42.181Z,0
2017-02-08T05:36:53.586Z,0
2017-02-08T05:38:04.993Z,0
2017-02-08T05:39:16.443Z,0
2017-02-08T05:40:27.842Z,0
2017-02-08T05:41:39.247Z,0
2017-02-08T05:42:50.642Z,0
2017-02-08T05:44:02.046Z,0
2017-02-08T05:45:13.723Z,0
2017-02-08T05:46:25.138Z,0
2017-02-08T05:47:36.524Z,0
2017-02-08T05:48:48.127Z,0
2017-02-08T05:49:59.535Z,0
2017-02-08T05:51:10.986Z,0
2017-02-08T05:52:22.391Z,0
2017-02-08T05:53:33.793Z,0
2017-02-08T05:54:45.391Z,0
2017-02-08T05:55:56.992Z,0
2017-02-08T05:57:08.436Z,0
2017-02-08T05:58:19.837Z,0
2017-02-08T05:59:31.235Z,0
2017-02-08T06:00:42.846Z,0
2017-02-08T06:01:54.245Z,0
2017-02-08T06:03:05.695Z,0
2017-02-08T06:04:17.095Z,0
2017-02-08T06:05:28.508Z,0
2017-02-08T06:06:39.909Z,0
2017-02-08T06:07:51.316Z,0
2017-02-08T06:09:02.759Z,0
2017-02-08T06:10:14.170Z,0
2017-02-08T06:11:25.576Z,0
2017-02-08T06:12:36.984Z,0
2017-02-08T06:13:48.389Z,0
2017-02-08T06:15:00.039Z,0
2017-02-08T06:16:11.451Z,0
2017-02-08T06:17:22.854Z,0
2017-02-08T06:18:34.460Z,0
2017-02-08T06:19:45.862Z,0
2017-02-08T06:20:57.310Z,0
2017-02-08T06:22:08.907Z,0
2017-02-08T06:23:20.515Z,0
2017-02-08T06:24:31.918Z,0
2017-02-08T06:25:43.327Z,0
2017-02-08T06:26:54.781Z,0
2017-02-08T06:28:06.177Z,0
2017-02-08T06:29:17.582Z,0
2017-02-08T06:30:34.118Z,0
2017-02-08T06:31:45.528Z,0
2017-02-08T06:32:56.985Z,0
2017-02-08T06:34:08.371Z,0
2017-02-08T06:35:19.973Z,0
2017-02-08T06:36:31.579Z,0
2017-02-08T06:37:42.973Z,0
2017-02-08T06:38:54.419Z,0
2017-02-08T06:40:05.818Z,0
2017-02-08T06:41:17.236Z,0
2017-02-08T06:42:28.639Z,0
2017-02-08T06:43:40.035Z,0
2017-02-08T06:44:51.485Z,0
2017-02-08T06:46:02.892Z,0
2017-02-08T06:47:14.493Z,0
2017-02-08T06:48:25.894Z,0
2017-02-08T06:49:37.492Z,0
2017-02-08T06:50:48.946Z,0
2017-02-08T06:52:00.356Z,5
2017-02-08T06:53:11.958Z,5
2017-02-08T06:54:23.561Z,5
2017-02-08T06:55:35.162Z,5
2017-02-08T06:56:46.615Z,5
2017-02-08T06:57:58.020Z,5
2017-02-08T06:59:09.422Z,5
2017-02-08T07:00:21.028Z,5
2017-02-08T07:01:32.830Z,10
2017-02-08T07:02:44.287Z,10
2017-02-08T07:03:55.689Z,10
2017-02-08T07:05:07.089Z,10
2017-02-08T07:06:18.491Z,15
2017-02-08T07:07:29.895Z,15
2017-02-08T07:08:41.502Z,15
2017-02-08T07:09:52.904Z,15
2017-02-08T07:11:04.514Z,15
2017-02-08T07:12:16.119Z,20
2017-02-08T07:13:27.577Z,20
2017-02-08T07:14:38.980Z,20
2017-02-08T07:15:50.389Z,20
2017-02-08T07:17:01.807Z,20
2017-02-08T07:18:13.420Z,20
2017-02-08T07:19:25.075Z,25
2017-02-08T07:20:36.471Z,25
2017-02-08T07:21:47.881Z,25
2017-02-08T07:22:59.280Z,25
2017-02-08T07:24:10.685Z,30
2017-02-08T07:25:22.133Z,30
2017-02-08T07:26:33.741Z,30
2017-02-08T07:27:45.139Z,35
2017-02-08T07:28:56.544Z,35
2017-02-08T07:30:07.950Z,35
2017-02-08T07:31:19.403Z,40
2017-02-08T07:32:30.803Z,40
2017-02-08T07:33:42.408Z,45
2017-02-08T07:34:53.820Z,45
2017-02-08T07:36:05.230Z,50
2017-02-08T07:37:16.884Z,50
2017-02-08T07:38:28.489Z,50
2017-02-08T07:39:39.896Z,55
2017-02-08T07:40:51.295Z,55
2017-02-08T07:42:02.703Z,60
2017-02-08T07:43:14.165Z,60
2017-02-08T07:44:25.574Z,60
2017-02-08T07:45:37.183Z,60
2017-02-08T07:46:48.585Z,60
2017-02-08T07:47:59.988Z,60
2017-02-08T07:49:11.642Z,60
2017-02-08T07:50:23.047Z,65
2017-02-08T07:51:34.447Z,65
2017-02-08T07:52:45.845Z,70
2017-02-08T07:53:57.256Z,70
2017-02-08T07:55:08.714Z,75
2017-02-08T07:56:20.319Z,75
2017-02-08T07:57:31.961Z,80
2017-02-08T07:58:43.361Z,80
2017-02-08T07:59:54.960Z,85
2017-02-08T08:01:06.415Z,85
2017-02-08T08:02:17.815Z,85
2017-02-08T08:03:29.210Z,90
2017-02-08T08:04:40.818Z,90
2017-02-08T08:05:52.220Z,90
2017-02-08T08:07:03.685Z,95
2017-02-08T08:08:15.082Z,95
2017-02-08T08:09:26.490Z,100
2017-02-08T08:10:37.887Z,100
2017-02-08T08:11:49.292Z,100
2017-02-08T08:13:00.939Z,100
2017-02-08T08:14:12.347Z,100
2017-02-08T08:15:23.755Z,105
2017-02-08T08:16:35.156Z,105
2017-02-08T08:17:46.555Z,105
2017-02-08T08:18:58.010Z,105
2017-02-08T08:20:09.607Z,105
2017-02-08T08:21:20.998Z,105
2017-02-08T08:22:32.397Z,105
2017-02-08T08:23:43.798Z,105
2017-02-08T08:24:55.266Z,110
2017-02-08T08:26:06.664Z,110
2017-02-08T08:27:18.060Z,115
2017-02-08T08:28:29.451Z,115
2017-02-08T08:29:40.855Z,115
2017-02-08T08:30:52.311Z,115
2017-02-08T08:32:03.712Z,120
2017-02-08T08:33:15.124Z,120
2017-02-08T08:34:26.525Z,120
2017-02-08T08:35:37.941Z,120
2017-02-08T08:36:49.591Z,125
2017-02-08T08:38:00.993Z,125
2017-02-08T08:39:12.397Z,125
2017-02-08T08:40:23.797Z,125
2017-02-08T08:41:35.197Z,125
2017-02-08T08:42:46.675Z,130
2017-02-08T08:43:58.080Z,130
2017-02-08T08:45:09.883Z,135
2017-02-08T08:46:21.693Z,135
2017-02-08T08:47:33.296Z,135
2017-02-08T08:48:44.748Z,140
2017-02-08T08:49:56.158Z,140
2017-02-08T08:51:07.555Z,140
2017-02-08T08:52:18.952Z,140
2017-02-08T08:53:30.351Z,150
2017-02-08T08:54:41.838Z,145
2017-02-08T08:55:53.448Z,150
2017-02-08T08:57:04.849Z,150
2017-02-08T08:58:16.464Z,150
2017-02-08T08:59:27.866Z,155
2017-02-08T09:00:39.318Z,155
2017-02-08T09:01:50.724Z,155
2017-02-08T09:03:02.129Z,160
2017-02-08T09:04:13.535Z,160
2017-02-08T09:05:24.930Z,160
2017-02-08T09:06:36.389Z,165
2017-02-08T09:07:47.796Z,165
2017-02-08T09:08:59.199Z,165
2017-02-08T09:10:10.608Z,165
2017-02-08T09:11:22.019Z,165
2017-02-08T09:12:33.475Z,170
2017-02-08T09:13:44.883Z,170
2017-02-08T09:14:56.279Z,175
2017-02-08T09:16:07.720Z,175
2017-02-08T09:17:19.114Z,180
2017-02-08T09:18:30.772Z,185
2017-02-08T09:19:42.179Z,185
2017-02-08T09:20:53.577Z,190
2017-02-08T09:22:04.980Z,190
2017-02-08T09:23:16.387Z,190
2017-02-08T09:24:27.843Z,190
2017-02-08T09:25:39.242Z,195
2017-02-08T09:26:50.643Z,195
2017-02-08T09:28:02.042Z,195
2017-02-08T09:29:13.447Z,195
2017-02-08T09:30:25.089Z,195
2017-02-08T09:31:36.684Z,195
2017-02-08T09:32:48.087Z,195
2017-02-08T09:33:59.691Z,200
2017-02-08T09:35:11.089Z,200
2017-02-08T09:36:22.544Z,205
2017-02-08T09:37:34.148Z,200
2017-02-08T09:38:45.554Z,205
2017-02-08T09:39:57.155Z,210
2017-02-08T09:41:08.564Z,205
2017-02-08T09:42:20.018Z,205
2017-02-08T09:43:31.420Z,205
2017-02-08T09:44:42.831Z,210
2017-02-08T09:45:54.235Z,215
2017-02-08T09:47:05.634Z,215
2017-02-08T09:48:17.091Z,220
2017-02-08T09:49:28.496Z,215
2017-02-08T09:50:39.903Z,225
2017-02-08T09:51:51.305Z,220
2017-02-08T09:53:02.906Z,220
2017-02-08T09:54:14.357Z,225
2017-02-08T09:55:25.958Z,225
2017-02-08T09:56:37.558Z,230
2017-02-08T09:57:48.969Z,230
2017-02-08T09:59:00.575Z,235
2017-02-08T10:00:12.026Z,235
2017-02-08T10:01:23.436Z,235
2017-02-08T10:02:34.840Z,240
2017-02-08T10:03:46.447Z,245
2017-02-08T10:04:57.850Z,250
2017-02-08T10:06:09.307Z,245
2017-02-08T10:07:20.909Z,250
2017-02-08T10:08:32.317Z,250
2017-02-08T10:09:43.727Z,255
2017-02-08T10:10:55.375Z,260
2017-02-08T10:12:06.825Z,260
2017-02-08T10:13:18.230Z,260
2017-02-08T10:14:29.638Z,260
2017-02-08T10:15:41.041Z,265
2017-02-08T10:16:52.451Z,275
2017-02-08T10:18:03.913Z,270
2017-02-08T10:19:15.314Z,270
2017-02-08T10:20:26.713Z,275
2017-02-08T10:21:38.118Z,280
2017-02-08T10:22:49.523Z,285
2017-02-08T10:24:00.967Z,290
2017-02-08T10:25:12.380Z,290
2017-02-08T10:26:23.788Z,295
2017-02-08T10:27:35.190Z,305
2017-02-08T10:28:46.594Z,310
2017-02-08T10:29:58.059Z,315
2017-02-08T10:31:09.472Z,320
2017-02-08T10:32:20.873Z,320
2017-02-08T10:33:32.283Z,325
2017-02-08T10:34:43.891Z,330
2017-02-08T10:35:55.351Z,345
2017-02-08T10:37:06.757Z,350
2017-02-08T10:38:18.359Z,355
2017-02-08T10:39:29.757Z,365
2017-02-08T10:40:41.169Z,365
2017-02-08T10:41:52.624Z,370
2017-02-08T10:43:04.029Z,375
2017-02-08T10:44:15.637Z,375
2017-02-08T10:45:27.036Z,380
2017-02-08T10:46:38.441Z,395
2017-02-08T10:47:50.101Z,405
2017-02-08T10:49:01.711Z,415
2017-02-08T10:50:13.330Z,415
2017-02-08T10:51:24.732Z,420
2017-02-08T10:52:36.131Z,420
2017-02-08T10:53:47.580Z,425
2017-02-08T10:54:58.990Z,435
2017-02-08T10:56:10.399Z,440
2017-02-08T10:57:21.793Z,445
2017-02-08T10:58:33.201Z,460
2017-02-08T10:59:44.645Z,465
2017-02-08T11:00:56.050Z,485
2017-02-08T11:02:07.452Z,485
2017-02-08T11:03:19.052Z,490
2017-02-08T11:04:30.459Z,505
2017-02-08T11:05:41.909Z,520
2017-02-08T11:06:53.312Z,545
2017-02-08T11:08:04.710Z,535
2017-02-08T11:09:16.149Z,545
2017-02-08T11:10:27.761Z,555
2017-02-08T11:11:39.209Z,560
2017-02-08T11:12:50.627Z,555
2017-02-08T11:14:02.030Z,550
2017-02-08T11:15:13.439Z,545
2017-02-08T11:16:24.848Z,545
2017-02-08T11:17:36.302Z,555
2017-02-08T11:18:47.910Z,570
2017-02-08T11:19:59.320Z,615
2017-02-08T11:21:10.738Z,650
2017-02-08T11:22:22.141Z,670
2017-02-08T11:23:33.794Z,665
2017-02-08T11:24:45.193Z,665
2017-02-08T11:25:56.597Z,635
2017-02-08T11:27:07.998Z,685
2017-02-08T11:28:19.606Z,705
2017-02-08T11:29:31.055Z,780
2017-02-08T11:30:42.454Z,845
2017-02-08T11:31:53.862Z,910
2017-02-08T11:33:05.275Z,1115
2017-02-08T11:34:16.682Z,1105
2017-02-08T11:35:28.137Z,1105
2017-02-08T11:36:39.549Z,1130
2017-02-08T11:37:50.959Z,1270
2017-02-08T11:39:02.363Z,1025
2017-02-08T11:40:13.768Z,1015
2017-02-08T11:41:25.222Z,905
2017-02-08T11:42:36.639Z,865
2017-02-08T11:43:48.055Z,740
2017-02-08T11:44:59.461Z,690
2017-02-08T11:46:11.065Z,670
2017-02-08T11:47:22.729Z,690
2017-02-08T11:48:34.339Z,705
2017-02-08T11:49:45.748Z,700
2017-02-08T11:50:57.562Z,700
2017-02-08T11:52:08.968Z,680
2017-02-08T11:53:20.631Z,720
2017-02-08T11:54:32.039Z,805
2017-02-08T11:55:43.451Z,805
2017-02-08T11:56:55.062Z,965
2017-02-08T11:58:06.465Z,885
2017-02-08T11:59:17.968Z,845
2017-02-08T12:00:29.588Z,830
2017-02-08T12:01:41.195Z,860
2017-02-08T12:02:52.798Z,775
2017-02-08T12:04:04.204Z,775
2017-02-08T12:05:15.657Z,890
2017-02-08T12:06:27.055Z,860
2017-02-08T12:07:38.473Z,890
2017-02-08T12:08:49.869Z,875
2017-02-08T12:10:01.476Z,835
2017-02-08T12:11:12.928Z,745
2017-02-08T12:12:24.333Z,665
2017-02-08T12:13:35.744Z,640
2017-02-08T12:14:47.141Z,700
2017-02-08T12:15:58.547Z,615
2017-02-08T12:17:10.005Z,570
2017-02-08T12:18:21.613Z,545
2017-02-08T12:19:33.021Z,475
2017-02-08T12:20:44.424Z,470
2017-02-08T12:21:56.039Z,450
2017-02-08T12:23:07.695Z,470
2017-02-08T12:24:19.304Z,480
2017-02-08T12:25:30.710Z,515
2017-02-08T12:26:42.114Z,535
2017-02-08T12:27:53.523Z,515
2017-02-08T12:29:05.177Z,505
2017-02-08T12:30:16.571Z,545
2017-02-08T12:31:27.978Z,610
2017-02-08T12:32:39.378Z,570
2017-02-08T12:33:50.792Z,565
2017-02-08T12:35:02.254Z,570
2017-02-08T12:36:13.667Z,555
2017-02-08T12:37:25.070Z,485
2017-02-08T12:38:36.468Z,510
2017-02-08T12:39:47.874Z,570
2017-02-08T12:40:59.384Z,570
2017-02-08T12:42:10.997Z,540
2017-02-08T12:43:22.403Z,490
2017-02-08T12:44:33.828Z,490
2017-02-08T12:45:45.438Z,465
2017-02-08T12:46:56.890Z,475
2017-02-08T12:48:08.299Z,425
2017-02-08T12:49:19.711Z,395
2017-02-08T12:50:31.121Z,400
2017-02-08T12:51:42.524Z,405
2017-02-08T12:52:54.175Z,405
2017-02-08T12:54:05.790Z,385
2017-02-08T12:55:17.185Z,385
2017-02-08T12:56:28.591Z,380
2017-02-08T12:57:39.992Z,385
2017-02-08T12:58:51.647Z,380
2017-02-08T13:00:03.053Z,375
2017-02-08T13:01:14.661Z,395
2017-02-08T13:02:26.276Z,410
2017-02-08T13:03:37.875Z,435
2017-02-08T13:04:49.327Z,440
2017-02-08T13:06:00.736Z,420
2017-02-08T13:07:12.151Z,415
2017-02-08T13:08:23.558Z,415
2017-02-08T13:09:34.963Z,415
2017-02-08T13:10:46.425Z,430
2017-02-08T13:11:57.830Z,425
2017-02-08T13:13:09.238Z,430
2017-02-08T13:14:20.637Z,425
2017-02-08T13:15:32.255Z,420
2017-02-08T13:16:43.706Z,415
2017-02-08T13:17:55.119Z,405
2017-02-08T13:19:06.536Z,405
2017-02-08T13:20:17.934Z,405
2017-02-08T13:21:29.348Z,405
2017-02-08T13:22:40.805Z,405
2017-02-08T13:23:52.213Z,395
2017-02-08T13:25:03.616Z,385
2017-02-08T13:26:15.022Z,370
2017-02-08T13:27:26.423Z,370
2017-02-08T13:28:37.879Z,375
2017-02-08T13:29:49.285Z,375
2017-02-08T13:31:00.701Z,365
2017-02-08T13:32:12.114Z,355
2017-02-08T13:33:23.727Z,335
2017-02-08T13:34:35.188Z,335
2017-02-08T13:35:46.591Z,335
2017-02-08T13:36:57.992Z,330
2017-02-08T13:38:09.601Z,325
2017-02-08T13:39:21.013Z,330
2017-02-08T13:40:32.506Z,325
2017-02-08T13:41:43.917Z,320
2017-02-08T13:42:55.329Z,320
2017-02-08T13:44:06.739Z,320
2017-02-08T13:45:18.150Z,320
2017-02-08T13:46:29.600Z,315
2017-02-08T13:47:40.999Z,315
2017-02-08T13:48:52.413Z,300
2017-02-08T13:50:04.018Z,295
2017-02-08T13:51:15.427Z,295
2017-02-08T13:52:26.880Z,295
2017-02-08T13:53:38.285Z,290
2017-02-08T13:54:49.690Z,290
2017-02-08T13:56:01.103Z,290
2017-02-08T13:57:12.521Z,295
2017-02-08T13:58:23.965Z,295
2017-02-08T13:59:35.380Z,295
2017-02-08T14:00:46.821Z,305
2017-02-08T14:01:58.225Z,300
2017-02-08T14:03:09.630Z,295
2017-02-08T14:04:21.296Z,280
2017-02-08T14:05:32.703Z,275
2017-02-08T14:06:44.311Z,275
2017-02-08T14:07:55.722Z,265
2017-02-08T14:09:07.135Z,255
2017-02-08T14:10:18.785Z,250
2017-02-08T14:11:30.199Z,250
2017-02-08T14:12:41.602Z,245
2017-02-08T14:13:53.022Z,240
2017-02-08T14:15:04.632Z,240
2017-02-08T14:16:16.082Z,230
2017-02-08T14:17:27.489Z,225
2017-02-08T14:18:39.096Z,215
2017-02-08T14:19:50.505Z,210
2017-02-08T14:21:01.901Z,200
2017-02-08T14:22:13.555Z,195
2017-02-08T14:23:24.961Z,195
2017-02-08T14:24:36.367Z,195
2017-02-08T14:25:47.775Z,195
2017-02-08T14:26:59.183Z,190
2017-02-08T14:28:10.643Z,190
2017-02-08T14:29:22.050Z,185
2017-02-08T14:30:33.664Z,180
2017-02-08T14:31:45.071Z,185
2017-02-08T14:36:55.774Z,170
2017-02-08T14:41:46.947Z,170
2017-02-08T14:41:57.143Z,155
2017-02-08T14:43:08.753Z,150
2017-02-08T14:44:20.158Z,150
2017-02-08T14:45:31.568Z,140
2017-02-08T14:46:43.075Z,140
2017-02-08T14:47:54.473Z,135
2017-02-08T14:49:05.883Z,125
2017-02-08T14:50:17.486Z,120
2017-02-08T14:51:28.890Z,115
2017-02-08T14:52:40.339Z,110
2017-02-08T14:53:52.159Z,105
2017-02-08T14:55:03.567Z,105
2017-02-08T14:56:14.962Z,95
2017-02-08T14:57:26.377Z,95
2017-02-08T14:58:37.827Z,90
2017-02-08T14:59:49.229Z,90
2017-02-08T15:01:00.630Z,90
2017-02-08T15:02:12.037Z,90
2017-02-08T15:03:23.447Z,90
2017-02-08T15:04:34.899Z,90
2017-02-08T15:05:46.322Z,90
2017-02-08T15:06:57.726Z,90
2017-02-08T15:08:09.123Z,90
2017-02-08T15:09:20.532Z,85
2017-02-08T15:10:31.988Z,85
2017-02-08T15:11:43.587Z,85
2017-02-08T15:12:54.996Z,80
2017-02-08T15:14:06.395Z,80
2017-02-08T15:15:17.795Z,75
2017-02-08T15:16:29.249Z,75
2017-02-08T15:17:40.656Z,75
2017-02-08T15:18:52.074Z,75
2017-02-08T15:20:03.482Z,75
2017-02-08T15:21:14.883Z,75
2017-02-08T15:22:26.744Z,75
2017-02-08T15:23:38.150Z,75
2017-02-08T15:24:49.555Z,75
2017-02-08T15:26:01.156Z,75
2017-02-08T15:27:12.566Z,75
2017-02-08T15:28:24.025Z,75
2017-02-08T15:29:35.422Z,70
2017-02-08T15:30:46.828Z,70
2017-02-08T15:31:58.231Z,70
2017-02-08T15:33:09.636Z,70
2017-02-08T15:34:21.091Z,65
2017-02-08T15:35:32.487Z,65
2017-02-08T15:36:44.100Z,60
2017-02-08T15:37:55.499Z,60
2017-02-08T15:39:06.901Z,60
2017-02-08T15:40:18.360Z,55
2017-02-08T15:41:29.962Z,55
2017-02-08T15:42:41.366Z,55
2017-02-08T15:43:52.773Z,55
2017-02-08T15:45:04.181Z,55
2017-02-08T15:46:15.838Z,50
2017-02-08T15:47:27.243Z,50
2017-02-08T15:48:38.644Z,50
2017-02-08T15:49:50.067Z,50
2017-02-08T15:51:01.677Z,45
2017-02-08T15:52:13.127Z,45
2017-02-08T15:53:24.733Z,45
2017-02-08T15:54:36.130Z,40
2017-02-08T15:55:47.541Z,40
2017-02-08T15:56:58.947Z,40
2017-02-08T15:58:10.399Z,40
2017-02-08T15:59:21.809Z,40
2017-02-08T16:00:33.214Z,40
2017-02-08T16:01:44.617Z,35
2017-02-08T16:02:56.026Z,35
2017-02-08T16:04:07.682Z,35
2017-02-08T16:05:19.090Z,30
2017-02-08T16:06:30.492Z,30
2017-02-08T16:07:41.900Z,30
2017-02-08T16:08:53.313Z,25
2017-02-08T16:10:05.025Z,25
2017-02-08T16:11:16.624Z,25
2017-02-08T16:12:28.024Z,20
2017-02-08T16:13:39.634Z,20
2017-02-08T16:14:51.043Z,20
2017-02-08T16:16:02.698Z,15
2017-02-08T16:17:14.106Z,15
2017-02-08T16:18:25.504Z,15
2017-02-08T16:19:37.111Z,15
2017-02-08T16:20:48.517Z,10
2017-02-08T16:21:59.980Z,10
2017-02-08T16:23:11.396Z,10
2017-02-08T16:24:22.807Z,10
2017-02-08T16:25:34.213Z,10
2017-02-08T16:26:45.623Z,5
2017-02-08T16:27:57.073Z,5
2017-02-08T16:29:08.472Z,5
2017-02-08T16:30:20.079Z,5
2017-02-08T16:31:31.493Z,5
2017-02-08T16:32:42.902Z,0
2017-02-08T16:33:54.358Z,0
2017-02-08T16:35:05.760Z,0
2017-02-08T16:36:17.163Z,0
2017-02-08T16:37:28.569Z,0
2017-02-08T16:38:39.978Z,0
2017-02-08T16:39:51.434Z,0
2017-02-08T16:41:02.840Z,0
2017-02-08T16:42:14.246Z,0
2017-02-08T16:43:25.859Z,0
2017-02-08T16:44:37.274Z,0
2017-02-08T16:45:48.735Z,0
2017-02-08T16:47:00.143Z,0
2017-02-08T16:48:11.548Z,0
2017-02-08T16:49:22.959Z,0
2017-02-08T16:50:34.371Z,0
2017-02-08T16:51:45.827Z,0
2017-02-08T16:52:57.228Z,0
2017-02-08T16:54:08.630Z,0
2017-02-08T16:55:20.033Z,0
2017-02-08T16:56:31.442Z,0
2017-02-08T16:57:42.893Z,0
2017-02-08T16:58:54.508Z,0
2017-02-08T17:00:05.907Z,0
2017-02-08T17:01:17.308Z,0
2017-02-08T17:02:28.914Z,0
2017-02-08T17:03:40.368Z,0
2017-02-08T17:04:51.771Z,0
2017-02-08T17:06:03.193Z,0
2017-02-08T17:07:14.595Z,0
2017-02-08T17:08:26.205Z,0